sensor_id;sensor_type;location;lat;lon;timestamp;pressure;altitude;pressure_sealevel;temperature;humidity
19843;BME280;10082;51.038;6.992;2024-03-08T00:01:37;112171.53;;;-144.33;100.00
19843;BME280;10082;51.038;6.992;2024-03-08T00:04:03;112171.53;;;-144.33;100.00
19843;BME280;10082;51.038;6.992;2024-03-08T00:06:33;112171.53;;;-144.33;100.00
19843;BME280;10082;51.038;6.992;2024-03-08T00:09:00;112171.53;;;-144.33;100.00
19843;BME280;10082;51.038;6.992;2024-03-08T00:11:27;112171.53;;;-144.33;100.00
19843;BME280;10082;51.038;6.992;2024-03-08T00:13:54;112171.53;;;-144.33;100.00
19843;BME280;10082;51.038;6.992;2024-03-08T00:16:22;112171.53;;;-144.33;100.00
19843;BME280;10082;51.038;6.992;2024-03-08T00:18:49;112171.53;;;-144.33;100.00
19843;BME280;10082;51.038;6.992;2024-03-08T00:21:16;112171.53;;;-144.33;100.00
19843;BME280;10082;51.038;6.992;2024-03-08T00:23:46;112171.53;;;-144.33;100.00
19843;BME280;10082;51.038;6.992;2024-03-08T00:26:13;112171.53;;;-144.33;100.00
19843;BME280;10082;51.038;6.992;2024-03-08T00:28:40;112171.53;;;-144.33;100.00
19843;BME280;10082;51.038;6.992;2024-03-08T00:31:07;112171.53;;;-144.33;100.00
19843;BME280;10082;51.038;6.992;2024-03-08T00:33:34;112171.53;;;-144.33;100.00
19843;BME280;10082;51.038;6.992;2024-03-08T00:36:02;112171.53;;;-144.33;100.00
19843;BME280;10082;51.038;6.992;2024-03-08T00:38:29;112171.53;;;-144.33;100.00
19843;BME280;10082;51.038;6.992;2024-03-08T00:40:58;112171.53;;;-144.33;100.00
19843;BME280;10082;51.038;6.992;2024-03-08T00:43:25;112171.53;;;-144.33;100.00
19843;BME280;10082;51.038;6.992;2024-03-08T00:45:53;112171.53;;;-144.33;100.00
19843;BME280;10082;51.038;6.992;2024-03-08T00:48:20;112171.53;;;-144.33;100.00
19843;BME280;10082;51.038;6.992;2024-03-08T00:50:47;112171.53;;;-144.33;100.00
19843;BME280;10082;51.038;6.992;2024-03-08T00:53:13;112171.53;;;-144.33;100.00
19843;BME280;10082;51.038;6.992;2024-03-08T00:55:40;112171.53;;;-144.33;100.00
19843;BME280;10082;51.038;6.992;2024-03-08T00:58:09;112171.53;;;-144.33;100.00
19843;BME280;10082;51.038;6.992;2024-03-08T01:00:37;112171.53;;;-144.33;100.00
19843;BME280;10082;51.038;6.992;2024-03-08T01:03:04;112171.53;;;-144.33;100.00
19843;BME280;10082;51.038;6.992;2024-03-08T01:05:32;112171.53;;;-144.33;100.00
19843;BME280;10082;51.038;6.992;2024-03-08T01:08:05;112171.53;;;-144.33;100.00
19843;BME280;10082;51.038;6.992;2024-03-08T01:10:33;112171.53;;;-144.33;100.00
19843;BME280;10082;51.038;6.992;2024-03-08T01:13:00;112171.53;;;-144.33;100.00
19843;BME280;10082;51.038;6.992;2024-03-08T01:15:28;112171.53;;;-144.33;100.00
19843;BME280;10082;51.038;6.992;2024-03-08T01:17:55;112171.53;;;-144.33;100.00
19843;BME280;10082;51.038;6.992;2024-03-08T01:20:22;112171.53;;;-144.33;100.00
19843;BME280;10082;51.038;6.992;2024-03-08T01:22:49;112171.53;;;-144.33;100.00
19843;BME280;10082;51.038;6.992;2024-03-08T01:25:17;112171.53;;;-144.33;100.00
19843;BME280;10082;51.038;6.992;2024-03-08T01:27:44;112171.53;;;-144.33;100.00
19843;BME280;10082;51.038;6.992;2024-03-08T01:30:14;112171.53;;;-144.33;100.00
19843;BME280;10082;51.038;6.992;2024-03-08T01:32:44;112171.53;;;-144.33;100.00
19843;BME280;10082;51.038;6.992;2024-03-08T01:35:11;112171.53;;;-144.33;100.00
19843;BME280;10082;51.038;6.992;2024-03-08T01:37:38;112171.53;;;-144.33;100.00
19843;BME280;10082;51.038;6.992;2024-03-08T01:40:06;112171.53;;;-144.33;100.00
19843;BME280;10082;51.038;6.992;2024-03-08T01:42:34;112171.53;;;-144.33;100.00
19843;BME280;10082;51.038;6.992;2024-03-08T01:45:04;112171.53;;;-144.33;100.00
19843;BME280;10082;51.038;6.992;2024-03-08T01:47:32;112171.53;;;-144.33;100.00
19843;BME280;10082;51.038;6.992;2024-03-08T01:50:01;112171.53;;;-144.33;100.00
19843;BME280;10082;51.038;6.992;2024-03-08T01:52:30;112171.53;;;-144.33;100.00
19843;BME280;10082;51.038;6.992;2024-03-08T01:54:58;112171.53;;;-144.33;100.00
19843;BME280;10082;51.038;6.992;2024-03-08T01:57:31;112171.53;;;-144.33;100.00
19843;BME280;10082;51.038;6.992;2024-03-08T01:59:59;112171.53;;;-144.33;100.00
19843;BME280;10082;51.038;6.992;2024-03-08T02:02:32;112171.53;;;-144.33;100.00
19843;BME280;10082;51.038;6.992;2024-03-08T02:05:02;112171.53;;;-144.33;100.00
19843;BME280;10082;51.038;6.992;2024-03-08T02:07:29;112171.53;;;-144.33;100.00
19843;BME280;10082;51.038;6.992;2024-03-08T02:09:56;112171.53;;;-144.33;100.00
19843;BME280;10082;51.038;6.992;2024-03-08T02:12:32;112171.53;;;-144.33;100.00
19843;BME280;10082;51.038;6.992;2024-03-08T02:14:59;112171.53;;;-144.33;100.00
19843;BME280;10082;51.038;6.992;2024-03-08T02:17:26;112171.53;;;-144.33;100.00
19843;BME280;10082;51.038;6.992;2024-03-08T02:19:53;112171.53;;;-144.33;100.00
19843;BME280;10082;51.038;6.992;2024-03-08T02:22:22;112171.53;;;-144.33;100.00
19843;BME280;10082;51.038;6.992;2024-03-08T02:24:49;112171.53;;;-144.33;100.00
19843;BME280;10082;51.038;6.992;2024-03-08T02:27:23;112171.53;;;-144.33;100.00
19843;BME280;10082;51.038;6.992;2024-03-08T02:29:50;112171.53;;;-144.33;100.00
19843;BME280;10082;51.038;6.992;2024-03-08T02:32:21;112171.53;;;-144.33;100.00
19843;BME280;10082;51.038;6.992;2024-03-08T02:34:48;112171.53;;;-144.33;100.00
19843;BME280;10082;51.038;6.992;2024-03-08T02:37:15;112171.53;;;-144.33;100.00
19843;BME280;10082;51.038;6.992;2024-03-08T02:39:43;112171.53;;;-144.33;100.00
19843;BME280;10082;51.038;6.992;2024-03-08T02:42:10;112171.53;;;-144.33;100.00
19843;BME280;10082;51.038;6.992;2024-03-08T02:44:42;112171.53;;;-144.33;100.00
19843;BME280;10082;51.038;6.992;2024-03-08T02:47:09;112171.53;;;-144.33;100.00
19843;BME280;10082;51.038;6.992;2024-03-08T02:49:36;112171.53;;;-144.33;100.00
19843;BME280;10082;51.038;6.992;2024-03-08T02:52:04;112171.53;;;-144.33;100.00
19843;BME280;10082;51.038;6.992;2024-03-08T02:54:30;112171.53;;;-144.33;100.00
19843;BME280;10082;51.038;6.992;2024-03-08T02:57:02;112171.53;;;-144.33;100.00
19843;BME280;10082;51.038;6.992;2024-03-08T02:59:29;112171.53;;;-144.33;100.00
19843;BME280;10082;51.038;6.992;2024-03-08T03:01:55;112171.53;;;-144.33;100.00
19843;BME280;10082;51.038;6.992;2024-03-08T03:04:22;112171.53;;;-144.33;100.00
19843;BME280;10082;51.038;6.992;2024-03-08T03:06:49;112171.53;;;-144.33;100.00
19843;BME280;10082;51.038;6.992;2024-03-08T03:09:16;112171.53;;;-144.33;100.00
19843;BME280;10082;51.038;6.992;2024-03-08T03:11:49;112171.53;;;-144.33;100.00
19843;BME280;10082;51.038;6.992;2024-03-08T03:14:17;112171.53;;;-144.33;100.00
19843;BME280;10082;51.038;6.992;2024-03-08T03:16:44;112171.53;;;-144.33;100.00
19843;BME280;10082;51.038;6.992;2024-03-08T03:19:21;112171.53;;;-144.33;100.00
19843;BME280;10082;51.038;6.992;2024-03-08T03:21:48;112171.53;;;-144.33;100.00
19843;BME280;10082;51.038;6.992;2024-03-08T03:24:15;112171.53;;;-144.33;100.00
19843;BME280;10082;51.038;6.992;2024-03-08T03:26:43;112171.53;;;-144.33;100.00
19843;BME280;10082;51.038;6.992;2024-03-08T03:29:11;112171.53;;;-144.33;100.00
19843;BME280;10082;51.038;6.992;2024-03-08T03:31:41;112171.53;;;-144.33;100.00
19843;BME280;10082;51.038;6.992;2024-03-08T03:34:08;112171.53;;;-144.33;100.00
19843;BME280;10082;51.038;6.992;2024-03-08T03:36:35;112171.53;;;-144.33;100.00
19843;BME280;10082;51.038;6.992;2024-03-08T03:39:03;112171.53;;;-144.33;100.00
19843;BME280;10082;51.038;6.992;2024-03-08T03:41:37;112171.53;;;-144.33;100.00
19843;BME280;10082;51.038;6.992;2024-03-08T03:44:04;112171.53;;;-144.33;100.00
19843;BME280;10082;51.038;6.992;2024-03-08T03:46:32;112171.53;;;-144.33;100.00
19843;BME280;10082;51.038;6.992;2024-03-08T03:49:00;112171.53;;;-144.33;100.00
19843;BME280;10082;51.038;6.992;2024-03-08T03:51:29;112171.53;;;-144.33;100.00
19843;BME280;10082;51.038;6.992;2024-03-08T03:53:55;112171.53;;;-144.33;100.00
19843;BME280;10082;51.038;6.992;2024-03-08T03:56:25;112171.53;;;-144.33;100.00
19843;BME280;10082;51.038;6.992;2024-03-08T03:58:52;112171.53;;;-144.33;100.00
19843;BME280;10082;51.038;6.992;2024-03-08T04:01:19;112171.53;;;-144.33;100.00
19843;BME280;10082;51.038;6.992;2024-03-08T04:03:47;112171.53;;;-144.33;100.00
19843;BME280;10082;51.038;6.992;2024-03-08T04:06:16;112171.53;;;-144.33;100.00
19843;BME280;10082;51.038;6.992;2024-03-08T04:08:43;112171.53;;;-144.33;100.00
19843;BME280;10082;51.038;6.992;2024-03-08T04:11:10;112171.53;;;-144.33;100.00
19843;BME280;10082;51.038;6.992;2024-03-08T04:13:37;112171.53;;;-144.33;100.00
19843;BME280;10082;51.038;6.992;2024-03-08T04:16:05;112171.53;;;-144.33;100.00
19843;BME280;10082;51.038;6.992;2024-03-08T04:18:34;112171.53;;;-144.33;100.00
19843;BME280;10082;51.038;6.992;2024-03-08T04:21:04;112171.53;;;-144.33;100.00
19843;BME280;10082;51.038;6.992;2024-03-08T04:23:33;112171.53;;;-144.33;100.00
19843;BME280;10082;51.038;6.992;2024-03-08T04:26:04;112171.53;;;-144.33;100.00
19843;BME280;10082;51.038;6.992;2024-03-08T04:28:34;112171.53;;;-144.33;100.00
19843;BME280;10082;51.038;6.992;2024-03-08T04:31:03;112171.53;;;-144.33;100.00
19843;BME280;10082;51.038;6.992;2024-03-08T04:33:30;112171.53;;;-144.33;100.00
19843;BME280;10082;51.038;6.992;2024-03-08T04:35:57;112171.53;;;-144.33;100.00
19843;BME280;10082;51.038;6.992;2024-03-08T04:38:24;112171.53;;;-144.33;100.00
19843;BME280;10082;51.038;6.992;2024-03-08T04:40:53;112171.53;;;-144.33;100.00
19843;BME280;10082;51.038;6.992;2024-03-08T04:43:20;112171.53;;;-144.33;100.00
19843;BME280;10082;51.038;6.992;2024-03-08T04:45:47;112171.53;;;-144.33;100.00
19843;BME280;10082;51.038;6.992;2024-03-08T04:48:17;112171.53;;;-144.33;100.00
19843;BME280;10082;51.038;6.992;2024-03-08T04:50:45;112171.53;;;-144.33;100.00
19843;BME280;10082;51.038;6.992;2024-03-08T04:53:11;112171.53;;;-144.33;100.00
19843;BME280;10082;51.038;6.992;2024-03-08T04:55:39;112171.53;;;-144.33;100.00
19843;BME280;10082;51.038;6.992;2024-03-08T04:58:07;112171.53;;;-144.33;100.00
19843;BME280;10082;51.038;6.992;2024-03-08T05:00:34;112171.53;;;-144.33;100.00
19843;BME280;10082;51.038;6.992;2024-03-08T05:03:01;112171.53;;;-144.33;100.00
19843;BME280;10082;51.038;6.992;2024-03-08T05:05:28;112171.53;;;-144.33;100.00
19843;BME280;10082;51.038;6.992;2024-03-08T05:07:55;112171.53;;;-144.33;100.00
19843;BME280;10082;51.038;6.992;2024-03-08T05:10:26;112171.53;;;-144.33;100.00
19843;BME280;10082;51.038;6.992;2024-03-08T05:12:53;112171.53;;;-144.33;100.00
19843;BME280;10082;51.038;6.992;2024-03-08T05:15:21;112171.53;;;-144.33;100.00
19843;BME280;10082;51.038;6.992;2024-03-08T05:17:48;112171.53;;;-144.33;100.00
19843;BME280;10082;51.038;6.992;2024-03-08T05:20:15;112171.53;;;-144.33;100.00
19843;BME280;10082;51.038;6.992;2024-03-08T05:22:42;112171.53;;;-144.33;100.00
19843;BME280;10082;51.038;6.992;2024-03-08T05:25:09;112171.53;;;-144.33;100.00
19843;BME280;10082;51.038;6.992;2024-03-08T05:27:37;112171.53;;;-144.33;100.00
19843;BME280;10082;51.038;6.992;2024-03-08T05:30:05;112171.53;;;-144.33;100.00
19843;BME280;10082;51.038;6.992;2024-03-08T05:32:34;112171.53;;;-144.33;100.00
19843;BME280;10082;51.038;6.992;2024-03-08T05:35:01;112171.53;;;-144.33;100.00
19843;BME280;10082;51.038;6.992;2024-03-08T05:37:32;112171.53;;;-144.33;100.00
19843;BME280;10082;51.038;6.992;2024-03-08T05:39:59;112171.53;;;-144.33;100.00
19843;BME280;10082;51.038;6.992;2024-03-08T05:42:26;112171.53;;;-144.33;100.00
19843;BME280;10082;51.038;6.992;2024-03-08T05:44:53;112171.53;;;-144.33;100.00
19843;BME280;10082;51.038;6.992;2024-03-08T05:47:22;112171.53;;;-144.33;100.00
19843;BME280;10082;51.038;6.992;2024-03-08T05:49:51;112171.53;;;-144.33;100.00
19843;BME280;10082;51.038;6.992;2024-03-08T05:52:19;112171.53;;;-144.33;100.00
19843;BME280;10082;51.038;6.992;2024-03-08T05:54:46;112171.53;;;-144.33;100.00
19843;BME280;10082;51.038;6.992;2024-03-08T05:57:14;112171.53;;;-144.33;100.00
19843;BME280;10082;51.038;6.992;2024-03-08T05:59:42;112171.53;;;-144.33;100.00
19843;BME280;10082;51.038;6.992;2024-03-08T06:02:09;112171.53;;;-144.33;100.00
19843;BME280;10082;51.038;6.992;2024-03-08T06:04:36;112171.53;;;-144.33;100.00
19843;BME280;10082;51.038;6.992;2024-03-08T06:07:05;112171.53;;;-144.33;100.00
19843;BME280;10082;51.038;6.992;2024-03-08T06:09:37;112171.53;;;-144.33;100.00
19843;BME280;10082;51.038;6.992;2024-03-08T06:12:05;112171.53;;;-144.33;100.00
19843;BME280;10082;51.038;6.992;2024-03-08T06:14:35;112171.53;;;-144.33;100.00
19843;BME280;10082;51.038;6.992;2024-03-08T06:17:02;112171.53;;;-144.33;100.00
19843;BME280;10082;51.038;6.992;2024-03-08T06:19:30;112171.53;;;-144.33;100.00
19843;BME280;10082;51.038;6.992;2024-03-08T06:21:57;112171.53;;;-144.33;100.00
19843;BME280;10082;51.038;6.992;2024-03-08T06:24:26;112171.53;;;-144.33;100.00
19843;BME280;10082;51.038;6.992;2024-03-08T06:26:53;112171.53;;;-144.33;100.00
19843;BME280;10082;51.038;6.992;2024-03-08T06:29:20;112171.53;;;-144.33;100.00
19843;BME280;10082;51.038;6.992;2024-03-08T06:31:47;112171.53;;;-144.33;100.00
19843;BME280;10082;51.038;6.992;2024-03-08T06:34:15;112171.53;;;-144.33;100.00
19843;BME280;10082;51.038;6.992;2024-03-08T06:36:43;112171.53;;;-144.33;100.00
19843;BME280;10082;51.038;6.992;2024-03-08T06:39:10;112171.53;;;-144.33;100.00
19843;BME280;10082;51.038;6.992;2024-03-08T06:41:39;112171.53;;;-144.33;100.00
19843;BME280;10082;51.038;6.992;2024-03-08T06:44:06;112171.53;;;-144.33;100.00
19843;BME280;10082;51.038;6.992;2024-03-08T06:46:34;112171.53;;;-144.33;100.00
19843;BME280;10082;51.038;6.992;2024-03-08T06:49:01;112171.53;;;-144.33;100.00
19843;BME280;10082;51.038;6.992;2024-03-08T06:51:28;112171.53;;;-144.33;100.00
19843;BME280;10082;51.038;6.992;2024-03-08T06:53:56;112171.53;;;-144.33;100.00
19843;BME280;10082;51.038;6.992;2024-03-08T06:56:23;112171.53;;;-144.33;100.00
19843;BME280;10082;51.038;6.992;2024-03-08T06:58:52;112171.53;;;-144.33;100.00
19843;BME280;10082;51.038;6.992;2024-03-08T07:01:26;112171.53;;;-144.33;100.00
19843;BME280;10082;51.038;6.992;2024-03-08T07:03:53;112171.53;;;-144.33;100.00
19843;BME280;10082;51.038;6.992;2024-03-08T07:06:22;112171.53;;;-144.33;100.00
19843;BME280;10082;51.038;6.992;2024-03-08T07:08:49;112171.53;;;-144.33;100.00
19843;BME280;10082;51.038;6.992;2024-03-08T07:11:16;112171.53;;;-144.33;100.00
19843;BME280;10082;51.038;6.992;2024-03-08T07:13:44;112171.53;;;-144.33;100.00
19843;BME280;10082;51.038;6.992;2024-03-08T07:16:12;112171.53;;;-144.33;100.00
19843;BME280;10082;51.038;6.992;2024-03-08T07:18:39;112171.53;;;-144.33;100.00
19843;BME280;10082;51.038;6.992;2024-03-08T07:21:08;112171.53;;;-144.33;100.00
19843;BME280;10082;51.038;6.992;2024-03-08T07:23:37;112171.53;;;-144.33;100.00
19843;BME280;10082;51.038;6.992;2024-03-08T07:26:28;112171.53;;;-144.33;100.00
19843;BME280;10082;51.038;6.992;2024-03-08T07:28:58;112171.53;;;-144.33;100.00
19843;BME280;10082;51.038;6.992;2024-03-08T07:31:27;112171.53;;;-144.33;100.00
19843;BME280;10082;51.038;6.992;2024-03-08T07:34:10;112171.53;;;-144.33;100.00
19843;BME280;10082;51.038;6.992;2024-03-08T07:36:37;112171.53;;;-144.33;100.00
19843;BME280;10082;51.038;6.992;2024-03-08T07:39:04;112171.53;;;-144.33;100.00
19843;BME280;10082;51.038;6.992;2024-03-08T07:41:37;112171.53;;;-144.33;100.00
19843;BME280;10082;51.038;6.992;2024-03-08T07:44:05;112171.53;;;-144.33;100.00
19843;BME280;10082;51.038;6.992;2024-03-08T07:46:34;112171.53;;;-144.33;100.00
19843;BME280;10082;51.038;6.992;2024-03-08T07:49:02;112171.53;;;-144.33;100.00
19843;BME280;10082;51.038;6.992;2024-03-08T07:51:29;112171.53;;;-144.33;100.00
19843;BME280;10082;51.038;6.992;2024-03-08T07:53:57;112171.53;;;-144.33;100.00
19843;BME280;10082;51.038;6.992;2024-03-08T07:56:25;112171.53;;;-144.33;99.31
19843;BME280;10082;51.038;6.992;2024-03-08T07:58:51;112171.53;;;-144.33;98.08
19843;BME280;10082;51.038;6.992;2024-03-08T08:01:19;112171.53;;;-144.33;97.75
19843;BME280;10082;51.038;6.992;2024-03-08T08:03:48;112171.53;;;-144.33;97.91
19843;BME280;10082;51.038;6.992;2024-03-08T08:06:21;112171.53;;;-144.33;97.44
19843;BME280;10082;51.038;6.992;2024-03-08T08:08:49;112171.53;;;-144.33;97.17
19843;BME280;10082;51.038;6.992;2024-03-08T08:11:16;112171.53;;;-144.33;97.26
19843;BME280;10082;51.038;6.992;2024-03-08T08:13:43;112171.53;;;-144.33;96.75
19843;BME280;10082;51.038;6.992;2024-03-08T08:16:10;112171.53;;;-144.33;94.71
19843;BME280;10082;51.038;6.992;2024-03-08T08:18:38;112171.53;;;-144.33;94.72
19843;BME280;10082;51.038;6.992;2024-03-08T08:21:09;112171.53;;;-144.33;94.00
19843;BME280;10082;51.038;6.992;2024-03-08T08:23:36;112171.53;;;-144.33;93.77
19843;BME280;10082;51.038;6.992;2024-03-08T08:26:03;112171.53;;;-144.33;94.32
19843;BME280;10082;51.038;6.992;2024-03-08T08:28:33;112171.53;;;-144.33;92.71
19843;BME280;10082;51.038;6.992;2024-03-08T08:31:00;112171.53;;;-144.33;91.53
19843;BME280;10082;51.038;6.992;2024-03-08T08:33:29;112171.53;;;-144.33;91.01
19843;BME280;10082;51.038;6.992;2024-03-08T08:35:56;112171.53;;;-144.33;89.46
19843;BME280;10082;51.038;6.992;2024-03-08T08:38:25;112171.53;;;-144.33;90.69
19843;BME280;10082;51.038;6.992;2024-03-08T08:40:53;112171.53;;;-144.33;89.67
19843;BME280;10082;51.038;6.992;2024-03-08T08:43:20;112171.53;;;-144.33;88.27
19843;BME280;10082;51.038;6.992;2024-03-08T08:45:49;112171.53;;;-144.33;88.02
19843;BME280;10082;51.038;6.992;2024-03-08T08:48:20;112171.53;;;-144.33;88.47
19843;BME280;10082;51.038;6.992;2024-03-08T08:50:46;112171.53;;;-144.33;87.92
19843;BME280;10082;51.038;6.992;2024-03-08T08:53:17;112171.53;;;-144.33;86.65
19843;BME280;10082;51.038;6.992;2024-03-08T08:55:46;112171.53;;;-144.33;86.98
19843;BME280;10082;51.038;6.992;2024-03-08T08:58:16;112171.53;;;-144.33;87.39
19843;BME280;10082;51.038;6.992;2024-03-08T09:00:43;112171.53;;;-144.33;86.41
19843;BME280;10082;51.038;6.992;2024-03-08T09:03:10;112171.53;;;-144.33;84.84
19843;BME280;10082;51.038;6.992;2024-03-08T09:05:38;112171.53;;;-144.33;85.48
19843;BME280;10082;51.038;6.992;2024-03-08T09:08:08;112171.53;;;-144.33;84.97
19843;BME280;10082;51.038;6.992;2024-03-08T09:10:35;112171.53;;;-144.33;84.60
19843;BME280;10082;51.038;6.992;2024-03-08T09:13:06;112171.53;;;-144.33;84.41
19843;BME280;10082;51.038;6.992;2024-03-08T09:15:35;112171.53;;;-144.33;84.49
19843;BME280;10082;51.038;6.992;2024-03-08T09:18:06;112171.53;;;-144.33;84.09
19843;BME280;10082;51.038;6.992;2024-03-08T09:20:33;112171.53;;;-144.33;84.34
19843;BME280;10082;51.038;6.992;2024-03-08T09:23:03;112171.53;;;-144.33;83.81
19843;BME280;10082;51.038;6.992;2024-03-08T09:25:34;112171.53;;;-144.33;83.21
19843;BME280;10082;51.038;6.992;2024-03-08T09:28:03;112171.53;;;-144.33;83.22
19843;BME280;10082;51.038;6.992;2024-03-08T09:30:33;112171.53;;;-144.33;82.06
19843;BME280;10082;51.038;6.992;2024-03-08T09:33:03;112171.53;;;-144.33;82.86
19843;BME280;10082;51.038;6.992;2024-03-08T09:35:35;112171.53;;;-144.33;81.40
19843;BME280;10082;51.038;6.992;2024-03-08T09:38:04;112171.53;;;-144.33;80.03
19843;BME280;10082;51.038;6.992;2024-03-08T09:40:36;112171.53;;;-144.33;79.43
19843;BME280;10082;51.038;6.992;2024-03-08T09:43:04;112171.53;;;-144.33;80.46
19843;BME280;10082;51.038;6.992;2024-03-08T09:45:37;112171.53;;;-144.33;81.09
19843;BME280;10082;51.038;6.992;2024-03-08T09:48:10;112171.53;;;-144.33;80.65
19843;BME280;10082;51.038;6.992;2024-03-08T09:50:41;112171.53;;;-144.33;79.54
19843;BME280;10082;51.038;6.992;2024-03-08T09:53:08;112171.53;;;-144.33;78.29
19843;BME280;10082;51.038;6.992;2024-03-08T09:55:38;112171.53;;;-144.33;79.22
19843;BME280;10082;51.038;6.992;2024-03-08T09:58:12;112171.53;;;-144.33;80.93
19843;BME280;10082;51.038;6.992;2024-03-08T10:01:04;112171.53;;;-144.33;81.14
19843;BME280;10082;51.038;6.992;2024-03-08T10:03:33;112171.53;;;-144.33;78.96
19843;BME280;10082;51.038;6.992;2024-03-08T10:06:02;112171.53;;;-144.33;78.52
19843;BME280;10082;51.038;6.992;2024-03-08T10:08:31;112171.53;;;-144.33;78.28
19843;BME280;10082;51.038;6.992;2024-03-08T10:11:01;112171.53;;;-144.33;78.19
19843;BME280;10082;51.038;6.992;2024-03-08T10:13:28;112171.53;;;-144.33;78.10
19843;BME280;10082;51.038;6.992;2024-03-08T10:15:57;112171.53;;;-144.33;77.36
19843;BME280;10082;51.038;6.992;2024-03-08T10:18:26;112171.53;;;-144.33;77.47
19843;BME280;10082;51.038;6.992;2024-03-08T10:21:04;112171.53;;;-144.33;76.86
19843;BME280;10082;51.038;6.992;2024-03-08T10:23:34;112171.53;;;-144.33;76.94
19843;BME280;10082;51.038;6.992;2024-03-08T10:26:12;112171.53;;;-144.33;76.73
19843;BME280;10082;51.038;6.992;2024-03-08T10:28:41;112171.53;;;-144.33;75.66
19843;BME280;10082;51.038;6.992;2024-03-08T10:31:10;112171.53;;;-144.33;75.73
19843;BME280;10082;51.038;6.992;2024-03-08T10:33:38;112171.53;;;-144.33;76.53
19843;BME280;10082;51.038;6.992;2024-03-08T10:36:07;112171.53;;;-144.33;76.35
19843;BME280;10082;51.038;6.992;2024-03-08T10:38:36;112171.53;;;-144.33;75.90
19843;BME280;10082;51.038;6.992;2024-03-08T10:41:05;112171.53;;;-144.33;76.40
19843;BME280;10082;51.038;6.992;2024-03-08T10:43:44;112171.53;;;-144.33;76.21
19843;BME280;10082;51.038;6.992;2024-03-08T10:46:21;112171.53;;;-144.33;76.70
19843;BME280;10082;51.038;6.992;2024-03-08T10:48:58;112171.53;;;-144.33;77.39
19843;BME280;10082;51.038;6.992;2024-03-08T10:51:38;112171.53;;;-144.33;77.70
19843;BME280;10082;51.038;6.992;2024-03-08T10:54:07;112171.53;;;-144.33;77.33
19843;BME280;10082;51.038;6.992;2024-03-08T10:56:36;112171.53;;;-144.33;76.50
19843;BME280;10082;51.038;6.992;2024-03-08T10:59:06;112171.53;;;-144.33;76.36
19843;BME280;10082;51.038;6.992;2024-03-08T11:01:34;112171.53;;;-144.33;77.43
19843;BME280;10082;51.038;6.992;2024-03-08T11:04:05;112171.53;;;-144.33;76.53
19843;BME280;10082;51.038;6.992;2024-03-08T11:06:42;112171.53;;;-144.33;77.17
19843;BME280;10082;51.038;6.992;2024-03-08T11:09:27;112171.53;;;-144.33;78.16
19843;BME280;10082;51.038;6.992;2024-03-08T11:12:18;112171.53;;;-144.33;79.03
19843;BME280;10082;51.038;6.992;2024-03-08T11:14:46;112171.53;;;-144.33;77.67
19843;BME280;10082;51.038;6.992;2024-03-08T11:17:16;112171.53;;;-144.33;77.38
19843;BME280;10082;51.038;6.992;2024-03-08T11:19:49;112171.53;;;-144.33;77.71
19843;BME280;10082;51.038;6.992;2024-03-08T11:22:22;112171.53;;;-144.33;76.91
19843;BME280;10082;51.038;6.992;2024-03-08T11:24:52;112171.53;;;-144.33;77.50
19843;BME280;10082;51.038;6.992;2024-03-08T11:27:20;112171.53;;;-144.33;77.95
19843;BME280;10082;51.038;6.992;2024-03-08T11:30:00;112171.53;;;-144.33;78.45
19843;BME280;10082;51.038;6.992;2024-03-08T11:32:36;112171.53;;;-144.33;79.33
19843;BME280;10082;51.038;6.992;2024-03-08T11:35:19;112171.53;;;-144.33;78.75
19843;BME280;10082;51.038;6.992;2024-03-08T11:37:46;112171.53;;;-144.33;77.96
19843;BME280;10082;51.038;6.992;2024-03-08T11:40:15;112171.53;;;-144.33;77.37
19843;BME280;10082;51.038;6.992;2024-03-08T11:42:44;112171.53;;;-144.33;78.08
19843;BME280;10082;51.038;6.992;2024-03-08T11:45:14;112171.53;;;-144.33;78.22
19843;BME280;10082;51.038;6.992;2024-03-08T11:47:42;112171.53;;;-144.33;78.05
19843;BME280;10082;51.038;6.992;2024-03-08T11:50:13;112171.53;;;-144.33;77.79
19843;BME280;10082;51.038;6.992;2024-03-08T11:52:41;112171.53;;;-144.33;77.48
19843;BME280;10082;51.038;6.992;2024-03-08T11:55:08;112171.53;;;-144.33;78.00
19843;BME280;10082;51.038;6.992;2024-03-08T11:57:38;112171.53;;;-144.33;76.82
19843;BME280;10082;51.038;6.992;2024-03-08T12:00:06;112171.53;;;-144.33;76.64
19843;BME280;10082;51.038;6.992;2024-03-08T12:03:01;112171.53;;;-144.33;76.83
19843;BME280;10082;51.038;6.992;2024-03-08T12:05:29;112171.53;;;-144.33;76.60
19843;BME280;10082;51.038;6.992;2024-03-08T12:08:02;112171.53;;;-144.33;76.39
19843;BME280;10082;51.038;6.992;2024-03-08T12:10:30;112171.53;;;-144.33;76.32
19843;BME280;10082;51.038;6.992;2024-03-08T12:12:58;112171.53;;;-144.33;76.11
19843;BME280;10082;51.038;6.992;2024-03-08T12:15:26;112171.53;;;-144.33;76.66
19843;BME280;10082;51.038;6.992;2024-03-08T12:17:55;112171.53;;;-144.33;76.24
19843;BME280;10082;51.038;6.992;2024-03-08T12:20:24;112171.53;;;-144.33;75.84
19843;BME280;10082;51.038;6.992;2024-03-08T12:22:53;112171.53;;;-144.33;76.18
19843;BME280;10082;51.038;6.992;2024-03-08T12:25:22;112171.53;;;-144.33;74.97
19843;BME280;10082;51.038;6.992;2024-03-08T12:27:49;112171.53;;;-144.33;74.46
19843;BME280;10082;51.038;6.992;2024-03-08T12:30:20;112171.53;;;-144.33;74.08
19843;BME280;10082;51.038;6.992;2024-03-08T12:32:55;112171.53;;;-144.33;74.16